Young America, Minnesota
Current Conditions -  °F | °C
As of 11:54 AM on Monday 24 Nov 2014 (Local Time) from KGYL Reporting Station
Light Snow Light Snow  
Wind Chill:   Ceiling: 1400
Heat Index: 19°   Visibility: 10mi
Dew Point: 15°   Wind: 21mph
Humidity: 82%   Direction: 300°WNW
Pressure: 29.52"   Gusts: 29mph
Location:  44.78°N, 93.92°W
Report Text: KGYL 241754Z AUTO 30018G25KT 10SM -SN SCT009 BKN014 BKN041 M07/M10 A2952 RMK AO2 T10701096 11050 21071
Loading
Personal Weather Stations






























Interactive Weather Map New forecast layout! Learn more

10-Day Weather Forecast

Advertisements
Track Severe Weather on mobile